Time;durP1;ratioP1;P1;durP2;ratioP2;P2;SDS_P1;SDS_P2;PMS_P1;PMS_P2;Temp;Humidity;BMP_temperature;BMP_pressure;BME280_temperature;BME280_humidity;BME280_pressure;Samples;Min_cycle;Max_cycle;Signal;HPM_P1;HPM_P2
2023/05/30 00:01:13;;;;;;;;;;;18.00;36.70;;;13.70;59.33;95510.69;5014155;28;20438;-53
2023/05/30 00:04:12;;;;;;;;;;;;;;;;;;;;;
2023/05/30 00:06:38;;;;;;;;;;;17.70;37.00;;;13.34;60.88;95508.38;5012394;28;19963;-54
2023/05/30 00:09:04;;;;;;;;;;;17.60;37.20;;;13.19;62.94;95517.31;5014878;28;19913;-54
2023/05/30 00:11:30;;;;;;;;;;;17.40;37.40;;;13.07;63.53;95508.91;5010714;28;19913;-53
2023/05/30 00:14:04;;;;;;;;;;;17.30;38.20;;;13.02;62.25;95509.72;5013666;28;19948;-54
2023/05/30 00:16:38;;;;;;;;;;;17.20;37.80;;;12.92;61.94;95507.16;5014523;28;19951;-53
2023/05/30 00:19:04;;;;;;;;;;;17.10;37.90;;;12.82;61.84;95515.25;5011915;28;20340;-54
2023/05/30 00:21:31;;;;;;;;;;;17.00;38.00;;;12.69;62.01;95516.66;5014406;28;19983;-54
2023/05/30 00:23:57;;;;;;;;;;;16.90;38.20;;;12.54;62.92;95509.59;5013457;28;19913;-52
2023/05/30 00:26:23;;;;;;;;;;;16.80;38.30;;;12.44;62.48;95505.13;5014383;28;19963;-51
2023/05/30 00:28:52;;;;;;;;;;;16.70;38.50;;;12.34;64.08;95515.06;5014130;28;19913;-53
2023/05/30 00:31:30;;;;;;;;;;;16.50;38.50;;;12.27;63.99;95507.34;5013244;28;19909;-54
2023/05/30 00:33:56;;;;;;;;;;;16.50;38.70;;;12.23;64.28;95517.00;5012018;28;19912;-49
2023/05/30 00:36:24;;;;;;;;;;;16.40;38.90;;;12.13;65.13;95512.53;5012043;28;19999;-54
2023/05/30 00:39:15;;;;;;;;;;;16.30;38.90;;;12.11;64.30;95509.31;5014332;28;20313;-54
2023/05/30 00:42:07;;;;;;;;;;;16.20;39.10;;;12.17;64.40;95507.41;5008666;28;20402;-54
2023/05/30 00:44:42;;;;;;;;;;;16.20;39.30;;;12.16;65.09;95500.47;5004125;28;19963;-54
2023/05/30 00:47:17;;;;;;;;;;;16.20;39.50;;;12.15;65.24;95504.22;5011009;28;19909;-54
2023/05/30 00:49:47;;;;;;;;;;;16.10;39.60;;;12.13;64.25;95501.03;5011710;28;19913;-55
2023/05/30 00:52:36;;;;;;;;;;;16.10;39.70;;;12.13;64.54;95493.81;5013041;28;19909;-54
2023/05/30 00:55:03;;;;;;;;;;;16.10;39.80;;;12.14;63.65;95505.31;5012840;28;20271;-52
2023/05/30 00:57:36;;;;;;;;;;;16.00;39.80;;;12.08;65.08;95501.06;5014224;28;19909;-51
2023/05/30 01:00:06;;;;;;;;;;;16.00;39.90;;;11.92;65.81;95508.34;5012348;28;19952;-54
2023/05/30 01:02:33;;;;;;;;;;;15.90;39.90;;;11.89;66.23;95498.22;5013621;28;19916;-51
2023/05/30 01:05:00;;;;;;;;;;;15.90;40.10;;;11.77;68.10;95498.50;5028451;28;19917;-50
2023/05/30 01:07:27;;;;;;;;;;;15.80;40.10;;;11.63;71.20;95497.50;5012738;28;19909;-53
2023/05/30 01:09:54;;;;;;;;;;;15.80;40.30;;;11.50;70.44;95502.34;5007525;28;20020;-50
2023/05/30 01:12:34;;;;;;;;;;;15.70;40.40;;;11.38;71.35;95506.41;5007988;28;19909;-49
2023/05/30 01:15:24;;;;;;;;;;;15.60;40.50;;;11.25;70.71;95505.06;5015936;28;19920;-51
2023/05/30 01:18:19;;;;;;;;;;;15.50;40.70;;;11.18;72.94;95501.91;5011835;28;19909;-51
2023/05/30 01:20:50;;;;;;;;;;;15.40;40.80;;;11.10;71.67;95506.72;5019892;28;20408;-52
2023/05/30 01:23:54;;;;;;;;;;;15.30;41.00;;;11.01;72.09;95507.53;5028644;28;19932;-50
2023/05/30 01:26:23;;;;;;;;;;;15.20;41.20;;;10.84;72.37;95507.78;4990920;28;19979;-52
2023/05/30 01:28:51;;;;;;;;;;;15.00;41.30;;;10.79;74.12;95513.94;4990896;28;19913;-51
2023/05/30 01:31:19;;;;;;;;;;;15.00;41.50;;;10.71;74.23;95511.00;4989080;28;20332;-53
2023/05/30 01:33:45;;;;;;;;;;;14.90;41.60;;;10.65;74.00;95512.84;5013326;28;19916;-50
2023/05/30 01:36:11;;;;;;;;;;;14.80;41.80;;;10.65;73.41;95511.03;5029470;28;20307;-52
2023/05/30 01:38:37;;;;;;;;;;;14.80;42.00;;;10.72;71.64;95515.25;5018221;28;20367;-53
2023/05/30 01:41:17;;;;;;;;;;;14.80;42.10;;;10.82;72.04;95510.75;5018698;28;19916;-50
2023/05/30 01:44:03;;;;;;;;;;;14.70;42.30;;;10.87;72.29;95505.41;5012715;28;20299;-52
2023/05/30 01:46:39;;;;;;;;;;;14.70;42.40;;;10.84;72.53;95508.63;5027649;28;20016;-52
2023/05/30 01:49:29;;;;;;;;;;;14.80;42.50;;;10.86;71.43;95511.00;5008019;28;19917;-53
2023/05/30 01:52:05;;;;;;;;;;;14.80;42.60;;;10.98;69.62;95510.72;5009506;28;19949;-51
2023/05/30 01:54:33;;;;;;;;;;;14.80;42.80;;;11.08;69.39;95508.84;5007162;28;20354;-53
2023/05/30 01:57:13;;;;;;;;;;;14.80;42.90;;;11.14;69.78;95509.63;5010439;28;19917;-52
2023/05/30 01:59:41;;;;;;;;;;;14.90;42.90;;;11.17;70.28;95500.31;5028134;28;19909;-53
2023/05/30 02:02:10;;;;;;;;;;;14.90;43.00;;;11.17;70.13;95502.97;5026278;28;19913;-54
2023/05/30 02:04:36;;;;;;;;;;;15.00;43.00;;;11.17;70.63;95519.75;5012652;28;20360;-52
2023/05/30 02:07:03;;;;;;;;;;;15.00;43.00;;;11.18;70.80;95517.88;5011558;28;19999;-53
2023/05/30 02:09:29;;;;;;;;;;;15.10;43.00;;;11.17;71.94;95518.97;5012289;28;19917;-49
2023/05/30 02:11:55;;;;;;;;;;;15.00;43.00;;;11.08;71.99;95521.38;5011146;28;19909;-49
2023/05/30 02:14:22;;;;;;;;;;;15.10;43.00;;;11.06;71.41;95523.50;5006625;28;19948;-53
2023/05/30 02:16:48;;;;;;;;;;;15.00;42.90;;;10.96;72.16;95526.19;5012500;28;20283;-54
2023/05/30 02:19:15;;;;;;;;;;;15.00;43.60;;;10.83;71.96;95522.97;5010651;28;19916;-54
2023/05/30 02:21:41;;;;;;;;;;;14.90;43.00;;;10.73;72.34;95532.84;5012539;28;20291;-51
2023/05/30 02:24:07;;;;;;;;;;;14.90;43.70;;;10.60;73.88;95528.84;5010661;28;19913;-53
2023/05/30 02:26:36;;;;;;;;;;;14.80;43.00;;;10.49;73.30;95528.03;5011018;28;20000;-52
2023/05/30 02:29:02;;;;;;;;;;;14.70;43.10;;;10.41;73.56;95537.34;5027268;28;20016;-52
2023/05/30 02:31:28;;;;;;;;;;;14.70;43.30;;;10.32;73.92;95532.81;5006089;28;20003;-50
2023/05/30 02:33:54;;;;;;;;;;;14.60;43.30;;;10.26;75.01;95531.19;5012183;28;20338;-50
2023/05/30 02:36:20;;;;;;;;;;;14.50;43.40;;;10.16;77.09;95532.75;5011194;28;20299;-54
2023/05/30 02:38:46;;;;;;;;;;;14.50;43.60;;;10.08;79.96;95527.94;5012026;28;19917;-53
2023/05/30 02:41:12;;;;;;;;;;;14.40;43.70;;;10.05;81.06;95525.00;5012175;28;19909;-48
2023/05/30 02:43:40;;;;;;;;;;;14.30;43.80;;;9.98;81.47;95519.94;5010876;28;20362;-54
2023/05/30 02:46:06;;;;;;;;;;;14.30;44.00;;;9.94;82.50;95529.50;5012140;28;19909;-50
2023/05/30 02:48:32;;;;;;;;;;;14.20;44.20;;;9.94;82.22;95530.28;5010959;28;19920;-52
2023/05/30 02:50:57;;;;;;;;;;;14.10;44.30;;;9.91;81.82;95538.81;5005332;28;19909;-53
2023/05/30 02:53:23;;;;;;;;;;;14.10;44.50;;;9.91;80.97;95541.47;5015716;28;19917;-50
2023/05/30 02:55:50;;;;;;;;;;;14.10;44.60;;;9.89;80.24;95550.75;5008412;28;19913;-48
2023/05/30 02:58:16;;;;;;;;;;;14.10;44.70;;;9.83;80.43;95552.59;5016040;28;19909;-49
2023/05/30 03:00:42;;;;;;;;;;;14.00;44.80;;;9.78;80.55;95551.75;5014946;28;20275;-53
2023/05/30 03:03:09;;;;;;;;;;;14.00;45.00;;;9.72;80.60;95545.66;5015911;28;20249;-53
2023/05/30 03:05:35;;;;;;;;;;;14.00;45.00;;;9.66;80.64;95554.66;5041448;23;19974;-56
2023/05/30 03:08:02;;;;;;;;;;;14.00;45.10;;;9.61;81.41;95558.09;5033040;28;19931;-57
2023/05/30 03:10:28;;;;;;;;;;;13.90;45.10;;;9.57;81.17;95559.66;5035516;28;20313;-55
2023/05/30 03:12:55;;;;;;;;;;;13.90;45.30;;;9.54;81.50;95564.69;5034433;28;19923;-56
2023/05/30 03:15:21;;;;;;;;;;;13.90;45.30;;;9.49;82.62;95562.81;5035596;28;19936;-53
2023/05/30 03:17:47;;;;;;;;;;;13.80;45.40;;;9.48;82.09;95566.53;5035515;28;19936;-55
2023/05/30 03:20:13;;;;;;;;;;;13.80;45.50;;;9.46;83.20;95572.13;5034307;28;19920;-57
2023/05/30 03:22:41;;;;;;;;;;;13.80;45.60;;;9.44;83.28;95576.88;5035381;28;19999;-53
2023/05/30 03:25:08;;;;;;;;;;;13.80;45.70;;;9.43;83.62;95572.63;5034556;28;19939;-55
2023/05/30 03:27:34;;;;;;;;;;;13.80;45.80;;;9.41;83.60;95577.41;5035329;28;20282;-56
2023/05/30 03:30:02;;;;;;;;;;;13.70;45.80;;;9.41;86.20;95572.06;5034708;28;20281;-54
2023/05/30 03:32:28;;;;;;;;;;;13.70;45.90;;;9.44;86.61;95579.53;5032184;28;19909;-56
2023/05/30 03:34:54;;;;;;;;;;;13.70;46.10;;;9.49;87.73;95579.59;5035118;28;19916;-52
2023/05/30 03:37:20;;;;;;;;;;;13.70;46.20;;;9.55;89.21;95582.25;5034066;28;19917;-53
2023/05/30 03:39:46;;;;;;;;;;;13.70;46.40;;;9.55;89.04;95582.25;5035357;28;19915;-52
2023/05/30 03:42:12;;;;;;;;;;;13.70;46.50;;;9.54;88.94;95576.13;5033977;28;19909;-53
2023/05/30 03:44:37;;;;;;;;;;;13.70;46.60;;;9.50;90.58;95575.84;5035052;28;19908;-52
2023/05/30 03:47:04;;;;;;;;;;;13.70;47.40;;;9.57;89.74;95583.59;5035167;28;19908;-54
2023/05/30 03:49:30;;;;;;;;;;;13.70;46.80;;;9.58;88.92;95587.06;5033758;28;20341;-50
2023/05/30 03:51:56;;;;;;;;;;;13.70;46.90;;;9.55;88.86;95583.03;5034666;28;19909;-55
2023/05/30 03:54:21;;;;;;;;;;;13.70;47.00;;;9.53;88.93;95582.53;5033757;28;19920;-56
2023/05/30 03:56:47;;;;;;;;;;;13.70;47.60;;;9.50;88.51;95581.16;5034813;28;19908;-55
2023/05/30 03:59:15;;;;;;;;;;;13.70;47.10;;;9.51;88.33;95589.94;5034944;28;19912;-51
2023/05/30 04:01:40;;;;;;;;;;;13.70;47.20;;;9.50;88.28;95591.00;5048329;28;19913;-57
2023/05/30 04:04:06;;;;;;;;;;;13.70;47.20;;;9.48;88.16;95588.59;5033966;28;19969;-53
2023/05/30 04:06:34;;;;;;;;;;;13.80;47.40;;;9.49;87.84;95586.72;5036846;28;19978;-50
2023/05/30 04:09:02;;;;;;;;;;;13.80;47.40;;;9.49;88.94;95584.91;5034527;28;20410;-56
2023/05/30 04:11:28;;;;;;;;;;;13.80;47.50;;;9.54;89.05;95592.09;5034418;28;19915;-55
2023/05/30 04:13:54;;;;;;;;;;;13.90;47.60;;;9.58;90.97;95590.50;5028149;28;19908;-57
2023/05/30 04:16:20;;;;;;;;;;;13.90;47.60;;;9.65;91.89;95600.91;5034385;28;20359;-50
2023/05/30 04:18:47;;;;;;;;;;;14.00;47.70;;;9.73;91.16;95603.09;5033090;28;19919;-52
2023/05/30 04:21:14;;;;;;;;;;;14.00;47.70;;;9.81;90.51;95593.81;5034307;28;19912;-51
2023/05/30 04:23:41;;;;;;;;;;;14.10;47.80;;;9.87;90.83;95595.44;5034365;28;19909;-52
2023/05/30 04:26:09;;;;;;;;;;;14.20;47.80;;;9.94;89.76;95591.50;5032957;28;19945;-50
2023/05/30 04:28:39;;;;;;;;;;;14.20;47.90;;;10.02;88.96;95606.16;5034006;28;19912;-52
2023/05/30 04:31:08;;;;;;;;;;;14.30;47.90;;;10.07;88.19;95600.84;5032656;28;19919;-52
2023/05/30 04:33:35;;;;;;;;;;;14.40;47.90;;;10.16;86.60;95604.63;5034171;28;20043;-50
2023/05/30 04:36:10;;;;;;;;;;;14.50;48.50;;;10.32;86.77;95608.16;5032892;28;19993;-55
2023/05/30 04:38:37;;;;;;;;;;;14.60;47.80;;;10.47;86.07;95598.63;5033961;28;20006;-52
2023/05/30 04:41:04;;;;;;;;;;;14.70;47.80;;;10.60;85.53;95601.56;5034006;28;20281;-50
2023/05/30 04:43:31;;;;;;;;;;;14.90;47.80;;;10.79;85.29;95607.19;5056851;28;19909;-55
2023/05/30 04:46:00;;;;;;;;;;;15.00;47.80;;;10.95;82.78;95607.22;5033522;28;19909;-52
2023/05/30 04:48:30;;;;;;;;;;;15.20;47.70;;;11.13;81.54;95612.00;5032763;28;19987;-50
2023/05/30 04:50:58;;;;;;;;;;;15.30;47.60;;;11.35;80.54;95614.41;5033755;28;19909;-54
2023/05/30 04:53:23;;;;;;;;;;;15.50;47.50;;;11.58;79.07;95618.38;5033786;28;19917;-54
2023/05/30 04:55:50;;;;;;;;;;;15.70;47.40;;;11.77;78.88;95622.06;5026229;28;19979;-54
2023/05/30 04:58:16;;;;;;;;;;;15.90;47.30;;;11.88;77.95;95625.53;5030012;28;20306;-58
2023/05/30 05:00:43;;;;;;;;;;;16.10;47.20;;;11.97;77.61;95628.44;5032612;28;20008;-52
2023/05/30 05:03:09;;;;;;;;;;;16.20;47.10;;;12.02;78.39;95629.22;5035690;28;19908;-54
2023/05/30 05:05:35;;;;;;;;;;;16.40;47.70;;;12.07;78.03;95631.09;5033303;28;19923;-53
2023/05/30 05:08:01;;;;;;;;;;;16.50;47.00;;;12.09;78.04;95633.47;5031415;28;19921;-50
2023/05/30 05:10:27;;;;;;;;;;;16.60;47.00;;;12.13;77.95;95631.88;5028782;28;19974;-50
2023/05/30 05:12:53;;;;;;;;;;;16.60;46.80;;;12.10;77.52;95630.53;5028169;28;20333;-50
2023/05/30 05:15:19;;;;;;;;;;;16.70;46.80;;;12.09;80.03;95631.59;5032499;28;19913;-49
2023/05/30 05:17:45;;;;;;;;;;;16.70;46.70;;;12.12;80.29;95624.91;5033099;28;19909;-49
2023/05/30 05:20:12;;;;;;;;;;;16.70;46.70;;;12.21;78.73;95626.75;5032323;28;20355;-54
2023/05/30 05:22:37;;;;;;;;;;;16.80;46.70;;;12.26;76.70;95632.09;5032772;28;19909;-52
2023/05/30 05:25:04;;;;;;;;;;;16.90;46.80;;;12.38;76.35;95629.09;5032272;28;19908;-53
2023/05/30 05:27:30;;;;;;;;;;;16.90;46.70;;;12.52;75.36;95634.63;5029484;28;19968;-55
2023/05/30 05:29:56;;;;;;;;;;;17.10;46.60;;;12.73;74.90;95636.13;5032385;28;19912;-50
2023/05/30 05:32:22;;;;;;;;;;;17.30;46.60;;;13.00;73.57;95634.88;5031636;28;20011;-55
2023/05/30 05:34:49;;;;;;;;;;;17.50;46.50;;;13.29;72.82;95639.53;5032084;28;19959;-50
2023/05/30 05:37:15;;;;;;;;;;;17.80;46.40;;;13.67;72.15;95639.72;5031577;28;20386;-51
2023/05/30 05:39:41;;;;;;;;;;;18.20;46.20;;;14.03;69.15;95640.16;5031014;28;19909;-56
2023/05/30 05:42:07;;;;;;;;;;;18.60;46.00;;;14.39;68.83;95648.59;5029615;28;20000;-56
2023/05/30 05:44:33;;;;;;;;;;;18.90;45.80;;;14.77;67.94;95651.34;5031071;28;20003;-50
2023/05/30 05:46:59;;;;;;;;;;;19.30;45.50;;;15.13;65.37;95650.81;5046861;28;19909;-52
2023/05/30 05:49:24;;;;;;;;;;;19.70;45.30;;;15.43;63.82;95650.34;5029754;28;20401;-50
2023/05/30 05:51:50;;;;;;;;;;;20.10;45.00;;;15.71;62.56;95653.16;5032705;28;19975;-54
2023/05/30 05:54:16;;;;;;;;;;;20.50;44.60;;;15.95;60.02;95650.28;5028555;28;19979;-56
2023/05/30 05:56:43;;;;;;;;;;;20.80;44.30;;;16.17;58.96;95649.63;5018233;28;19956;-50
2023/05/30 05:59:08;;;;;;;;;;;21.20;44.50;;;16.42;57.78;95637.56;5032114;28;19923;-51
2023/05/30 06:01:34;;;;;;;;;;;21.40;43.50;;;16.48;57.04;95644.41;5031093;28;19912;-52
2023/05/30 06:04:11;;;;;;;;;;;21.70;43.10;;;16.67;57.11;95649.69;5029159;28;19917;-52
2023/05/30 06:06:37;;;;;;;;;;;21.90;42.80;;;16.26;55.81;95650.50;5029217;28;20302;-53
2023/05/30 06:09:03;;;;;;;;;;;22.00;42.40;;;16.09;56.30;95653.00;5031383;28;19940;-49
2023/05/30 06:11:29;;;;;;;;;;;22.10;42.00;;;16.24;55.93;95658.09;5031791;28;19909;-52
2023/05/30 06:13:55;;;;;;;;;;;22.20;41.70;;;16.10;56.53;95660.75;5029824;28;19909;-54
2023/05/30 06:16:20;;;;;;;;;;;22.20;41.50;;;16.26;56.42;95665.84;5032192;28;19913;-55
2023/05/30 06:18:46;;;;;;;;;;;22.20;41.40;;;16.51;55.80;95669.91;5030105;28;19909;-55
2023/05/30 06:21:13;;;;;;;;;;;22.30;41.30;;;16.41;56.09;95673.59;5032051;28;19943;-52
2023/05/30 06:23:38;;;;;;;;;;;22.40;41.10;;;16.51;56.44;95670.72;5031143;28;19915;-56
2023/05/30 06:26:04;;;;;;;;;;;22.40;41.00;;;16.74;55.89;95676.19;5028352;28;19912;-56
2023/05/30 06:28:30;;;;;;;;;;;22.40;40.80;;;16.91;55.58;95683.66;5047581;28;20363;-50
2023/05/30 06:30:56;;;;;;;;;;;22.50;40.80;;;17.13;55.17;95688.28;5030863;28;19916;-55
2023/05/30 06:33:22;;;;;;;;;;;22.60;40.70;;;17.14;55.16;95682.59;5031993;28;20367;-53
2023/05/30 06:35:48;;;;;;;;;;;22.70;40.50;;;17.31;54.43;95688.13;5031876;28;20010;-56
2023/05/30 06:38:16;;;;;;;;;;;22.90;40.40;;;17.37;54.65;95690.72;5030965;28;19996;-53
2023/05/30 06:40:42;;;;;;;;;;;23.00;40.10;;;17.64;54.23;95697.88;5031669;28;20283;-52
2023/05/30 06:43:08;;;;;;;;;;;23.20;40.10;;;17.86;53.07;95692.50;5046199;28;19916;-56
2023/05/30 06:45:33;;;;;;;;;;;23.40;39.90;;;18.06;53.08;95695.78;5031815;28;19909;-52
2023/05/30 06:48:01;;;;;;;;;;;23.60;39.70;;;18.30;52.63;95695.41;5031813;28;19916;-56
2023/05/30 06:50:27;;;;;;;;;;;23.90;39.50;;;18.65;52.68;95696.34;5031294;28;19908;-51
2023/05/30 06:52:53;;;;;;;;;;;24.10;39.30;;;18.80;50.82;95687.81;5031754;28;19913;-52
2023/05/30 06:55:19;;;;;;;;;;;24.30;39.20;;;18.93;51.38;95694.22;5029733;28;19916;-54
2023/05/30 06:57:46;;;;;;;;;;;24.50;39.00;;;18.95;50.35;95687.38;5023752;28;19908;-55
2023/05/30 07:00:12;;;;;;;;;;;24.70;38.80;;;19.03;50.83;95691.22;5030726;28;19909;-54
2023/05/30 07:02:38;;;;;;;;;;;24.80;38.50;;;19.19;49.83;95686.94;5031655;28;20004;-54
2023/05/30 07:05:05;;;;;;;;;;;25.10;38.20;;;19.50;48.78;95694.09;5031376;28;19955;-53
2023/05/30 07:07:31;;;;;;;;;;;25.30;38.10;;;19.58;49.27;95690.59;5030618;28;19908;-53
2023/05/30 07:09:56;;;;;;;;;;;25.50;37.90;;;19.81;47.99;95690.47;5031757;28;19968;-52
2023/05/30 07:12:22;;;;;;;;;;;25.70;37.70;;;19.97;47.83;95685.34;5026851;28;19928;-54
2023/05/30 07:14:48;;;;;;;;;;;25.90;37.50;;;19.78;46.66;95688.41;5031527;28;19916;-53
2023/05/30 07:17:14;;;;;;;;;;;26.10;37.20;;;19.71;46.54;95696.19;5031711;28;19948;-52
2023/05/30 07:19:40;;;;;;;;;;;26.20;36.80;;;19.72;45.98;95697.78;5030493;28;19915;-54
2023/05/30 07:22:06;;;;;;;;;;;26.30;36.40;;;19.70;46.33;95698.09;5031308;28;19970;-50
2023/05/30 07:24:31;;;;;;;;;;;26.30;35.90;;;19.87;46.32;95697.28;5030482;28;19913;-56
2023/05/30 07:26:57;;;;;;;;;;;26.40;35.80;;;19.84;46.39;95692.53;5028655;28;19909;-54
2023/05/30 07:29:23;;;;;;;;;;;26.50;35.70;;;19.91;46.24;95703.63;5031301;28;19913;-49
2023/05/30 07:31:49;;;;;;;;;;;26.60;35.60;;;19.72;46.63;95695.88;5027513;28;19909;-52
2023/05/30 07:34:14;;;;;;;;;;;26.60;35.40;;;19.74;47.09;95700.94;5031233;28;19948;-54
2023/05/30 07:36:40;;;;;;;;;;;26.60;35.40;;;20.14;46.57;95695.31;5025382;28;19909;-56
2023/05/30 07:39:06;;;;;;;;;;;26.80;35.40;;;20.31;46.37;95695.25;5033667;28;19909;-56
2023/05/30 07:41:32;;;;;;;;;;;26.90;35.20;;;20.36;45.31;95700.47;5035282;28;20405;-55
2023/05/30 07:43:57;;;;;;;;;;;27.00;35.10;;;20.31;44.78;95700.66;5033952;28;19909;-54
2023/05/30 07:46:23;;;;;;;;;;;27.10;34.80;;;20.50;44.14;95698.34;5035135;28;19908;-55
2023/05/30 07:48:49;;;;;;;;;;;27.20;34.80;;;20.36;45.11;95689.66;5032403;28;19999;-55
2023/05/30 07:51:17;;;;;;;;;;;27.30;34.60;;;20.38;45.09;95695.53;5034735;28;19909;-59
2023/05/30 07:53:43;;;;;;;;;;;27.30;34.40;;;19.90;45.65;95688.53;5034899;28;19948;-57
2023/05/30 07:56:08;;;;;;;;;;;27.40;34.30;;;20.11;45.45;95691.31;5021136;28;19944;-57
2023/05/30 07:58:34;;;;;;;;;;;27.40;34.70;;;20.45;44.96;95687.72;5033661;28;19960;-57
2023/05/30 08:01:00;;;;;;;;;;;27.50;34.10;;;20.62;45.68;95677.94;5033321;28;20290;-57
2023/05/30 08:03:26;;;;;;;;;;;27.60;34.00;;;20.61;44.66;95685.28;5034589;28;19935;-57
2023/05/30 08:05:51;;;;;;;;;;;27.60;33.80;;;20.56;44.40;95680.84;5034169;28;20432;-57
2023/05/30 08:08:18;;;;;;;;;;;27.60;33.60;;;20.88;44.64;95692.16;5032975;28;19940;-59
2023/05/30 08:10:44;;;;;;;;;;;27.70;33.50;;;21.06;44.05;95678.50;5032271;28;19995;-57
2023/05/30 08:13:13;;;;;;;;;;;27.70;33.40;;;21.28;44.11;95678.19;5027067;28;19999;-57
2023/05/30 08:15:39;;;;;;;;;;;27.80;33.40;;;21.31;42.95;95679.41;5034566;28;19912;-57
2023/05/30 08:18:04;;;;;;;;;;;27.90;33.30;;;21.31;43.26;95685.66;5033456;28;20413;-55
2023/05/30 08:20:30;;;;;;;;;;;28.00;33.10;;;21.29;43.35;95682.47;5034756;28;20019;-57
2023/05/30 08:22:56;;;;;;;;;;;28.10;33.10;;;21.49;42.30;95673.56;5034342;28;19934;-56
2023/05/30 08:25:32;;;;;;;;;;;28.20;32.90;;;21.56;43.07;95672.22;5022570;28;19909;-56
2023/05/30 08:27:59;;;;;;;;;;;28.30;32.80;;;21.66;42.46;95677.25;5033429;28;19931;-53
2023/05/30 08:30:25;;;;;;;;;;;28.40;32.50;;;21.87;42.36;95678.03;5033107;28;20351;-56
2023/05/30 08:32:51;;;;;;;;;;;28.50;32.40;;;22.08;41.85;95675.22;5033972;28;20309;-57
2023/05/30 08:35:17;;;;;;;;;;;28.60;32.30;;;22.07;41.62;95665.53;5034149;28;19935;-57
2023/05/30 08:37:43;;;;;;;;;;;28.80;32.20;;;22.03;41.85;95671.94;5025550;28;19916;-57
2023/05/30 08:40:13;;;;;;;;;;;28.90;32.00;;;22.20;41.61;95677.22;5033829;28;19999;-57
2023/05/30 08:42:40;;;;;;;;;;;29.10;31.90;;;22.43;41.15;95674.06;5033065;28;19908;-55
2023/05/30 08:45:06;;;;;;;;;;;29.20;31.80;;;22.76;41.92;95676.69;5033917;28;19954;-56
2023/05/30 08:47:35;;;;;;;;;;;29.40;31.80;;;22.83;40.49;95677.69;5033709;28;20059;-56
2023/05/30 08:50:07;;;;;;;;;;;29.60;32.30;;;22.54;42.26;95677.94;5030761;28;19970;-57
2023/05/30 08:52:34;;;;;;;;;;;29.70;31.50;;;22.14;42.46;95676.59;5034151;28;19912;-57
2023/05/30 08:55:16;;;;;;;;;;;29.80;31.40;;;22.55;42.48;95674.09;5031092;28;19908;-57
2023/05/30 08:58:13;;;;;;;;;;;29.80;31.30;;;22.02;41.61;95670.34;5022417;28;19947;-57
2023/05/30 09:00:40;;;;;;;;;;;29.90;31.20;;;22.67;40.77;95674.09;5019685;28;19913;-57
2023/05/30 09:03:09;;;;;;;;;;;30.00;31.20;;;23.02;41.16;95677.13;5048718;28;19915;-57
2023/05/30 09:05:36;;;;;;;;;;;30.00;31.20;;;23.25;40.27;95665.75;5024776;28;19917;-54
2023/05/30 09:08:02;;;;;;;;;;;30.10;31.10;;;23.27;39.59;95672.44;5027887;28;19996;-54
2023/05/30 09:10:29;;;;;;;;;;;30.30;31.00;;;23.45;39.75;95681.13;5033181;28;19913;-49
2023/05/30 09:12:57;;;;;;;;;;;30.40;30.80;;;23.75;39.23;95672.66;5028747;28;19909;-56
2023/05/30 09:15:23;;;;;;;;;;;30.60;30.60;;;24.11;38.86;95670.88;5045516;28;20402;-54
2023/05/30 09:17:49;;;;;;;;;;;30.80;30.50;;;24.02;39.12;95674.56;5031443;28;19995;-54
2023/05/30 09:20:17;;;;;;;;;;;31.00;30.40;;;24.48;38.62;95679.63;5032250;28;19908;-52
2023/05/30 09:22:45;;;;;;;;;;;31.20;30.20;;;24.86;37.79;95680.94;5033025;28;20442;-55
2023/05/30 09:25:15;;;;;;;;;;;31.50;30.20;;;24.13;39.63;95674.03;5024519;28;20333;-55
2023/05/30 09:27:49;;;;;;;;;;;31.70;30.00;;;24.19;38.43;95670.72;5031143;28;19908;-53
2023/05/30 09:30:16;;;;;;;;;;;31.80;29.80;;;24.04;38.77;95676.94;5032078;28;19923;-52
2023/05/30 09:32:58;;;;;;;;;;;31.80;29.60;;;24.50;39.24;95682.00;5032842;28;19932;-48
2023/05/30 09:35:25;;;;;;;;;;;31.90;30.00;;;24.26;37.33;95672.06;5032626;28;19943;-53
2023/05/30 09:37:51;;;;;;;;;;;31.90;29.50;;;24.39;37.09;95668.09;5032051;28;19908;-51
2023/05/30 09:40:17;;;;;;;;;;;32.00;29.40;;;24.43;38.55;95674.44;5033057;28;20360;-50
2023/05/30 09:42:49;;;;;;;;;;;32.00;29.30;;;24.93;37.28;95675.63;5026430;28;20380;-53
2023/05/30 09:45:23;;;;;;;;;;;32.10;29.30;;;24.75;37.23;95675.22;5028698;28;19909;-55
2023/05/30 09:47:51;;;;;;;;;;;32.20;29.20;;;24.99;36.86;95674.22;5047477;28;19909;-55
2023/05/30 09:50:20;;;;;;;;;;;32.30;29.10;;;24.91;36.88;95677.91;5030491;28;20386;-50
2023/05/30 09:52:51;;;;;;;;;;;32.40;29.10;;;25.06;37.17;95668.91;5032785;28;20010;-48
2023/05/30 09:55:18;;;;;;;;;;;32.40;28.80;;;25.36;36.99;95671.94;5030682;28;19959;-55
2023/05/30 09:57:51;;;;;;;;;;;32.50;28.80;;;25.38;35.68;95663.41;5024692;28;19909;-55
2023/05/30 10:00:26;;;;;;;;;;;32.50;28.80;;;25.20;36.92;95676.66;5029886;28;19961;-50
2023/05/30 10:02:54;;;;;;;;;;;32.50;28.80;;;25.41;36.02;95670.88;5027848;28;19909;-53
2023/05/30 10:05:29;;;;;;;;;;;32.50;28.70;;;25.33;37.03;95678.13;5031096;28;19917;-53
2023/05/30 10:07:57;;;;;;;;;;;32.60;28.60;;;25.23;36.59;95677.88;5030269;28;19954;-53
2023/05/30 10:10:24;;;;;;;;;;;32.70;28.60;;;25.35;36.23;95675.84;5032609;28;19923;-52
2023/05/30 10:12:55;;;;;;;;;;;32.70;28.50;;;25.54;35.76;95666.06;5026789;28;19999;-51
2023/05/30 10:15:28;;;;;;;;;;;32.70;28.40;;;25.53;36.43;95665.28;5031473;28;19959;-54
2023/05/30 10:18:08;;;;;;;;;;;32.80;28.40;;;25.77;35.42;95677.06;5031882;28;20008;-48
2023/05/30 10:20:44;;;;;;;;;;;32.90;28.30;;;26.05;35.24;95661.25;5031682;28;19995;-48
2023/05/30 10:23:12;;;;;;;;;;;33.10;28.30;;;25.89;35.76;95659.78;5039516;28;20406;-48
2023/05/30 10:25:48;;;;;;;;;;;33.10;28.10;;;25.47;35.80;95660.47;5044269;28;19936;-48
2023/05/30 10:28:21;;;;;;;;;;;33.10;28.00;;;25.39;35.62;95652.16;5031655;28;19919;-50
2023/05/30 10:30:47;;;;;;;;;;;33.10;27.90;;;25.84;35.60;95649.94;5030610;28;19920;-51
2023/05/30 10:33:16;;;;;;;;;;;33.20;27.90;;;25.82;35.88;95652.22;5047742;28;20317;-51
2023/05/30 10:35:43;;;;;;;;;;;33.20;27.80;;;25.85;35.90;95651.50;5031737;28;19919;-48
2023/05/30 10:38:11;;;;;;;;;;;33.30;27.80;;;26.06;34.80;95643.72;5031279;28;19948;-48
2023/05/30 10:40:53;;;;;;;;;;;33.40;27.70;;;26.10;35.46;95660.16;5031976;28;20322;-48
2023/05/30 10:44:00;;;;;;;;;;;33.40;27.60;;;26.20;34.50;95656.84;5031045;28;19915;-53
2023/05/30 10:46:49;;;;;;;;;;;33.50;27.60;;;26.36;34.50;95653.19;5030914;28;19913;-53
2023/05/30 10:49:26;;;;;;;;;;;33.60;27.70;;;26.26;35.81;95649.94;5019932;28;19920;-51
2023/05/30 10:52:03;;;;;;;;;;;33.70;27.60;;;26.44;34.39;95647.47;5031884;28;19935;-52
2023/05/30 10:54:32;;;;;;;;;;;33.80;27.50;;;26.64;34.67;95644.72;5030474;28;19916;-55
2023/05/30 10:57:01;;;;;;;;;;;33.90;27.60;;;26.64;34.46;95642.78;5031940;28;19908;-55
2023/05/30 10:59:27;;;;;;;;;;;34.00;27.40;;;26.91;34.57;95645.50;5032071;28;19909;-54
2023/05/30 11:02:07;;;;;;;;;;;34.10;27.30;;;26.81;34.27;95646.91;5030303;28;19919;-52
2023/05/30 11:04:38;;;;;;;;;;;34.20;27.70;;;26.12;34.69;95637.97;5031562;28;19921;-49
2023/05/30 11:07:06;;;;;;;;;;;34.30;27.10;;;26.71;34.93;95634.69;5023481;28;19912;-51
2023/05/30 11:09:32;;;;;;;;;;;34.30;27.20;;;26.87;33.89;95639.19;5027467;28;19913;-48
2023/05/30 11:12:00;;;;;;;;;;;34.40;27.10;;;27.12;33.88;95625.88;5047440;28;20391;-50
2023/05/30 11:14:32;;;;;;;;;;;34.50;27.00;;;26.94;34.77;95629.16;5034008;28;19913;-55
2023/05/30 11:17:07;;;;;;;;;;;34.60;26.90;;;26.16;34.08;95631.41;5035233;28;19908;-53
2023/05/30 11:19:43;;;;;;;;;;;34.70;27.00;;;26.58;34.97;95621.59;5031785;28;19916;-51
2023/05/30 11:22:19;;;;;;;;;;;34.60;26.90;;;26.71;34.51;95633.88;5034521;28;19912;-51
2023/05/30 11:24:45;;;;;;;;;;;34.70;26.80;;;27.01;33.55;95628.44;5016853;28;19940;-49
2023/05/30 11:27:15;;;;;;;;;;;34.80;26.90;;;27.09;34.76;95627.41;5029285;28;19955;-52